Time;durP1;ratioP1;P1;durP2;ratioP2;P2;SDS_P1;SDS_P2;PMS_P1;PMS_P2;Temp;Humidity;BMP_temperature;BMP_pressure;BME280_temperature;BME280_humidity;BME280_pressure;Samples;Min_cycle;Max_cycle;Signal;HPM_P1;HPM_P2
2023/03/19 00:00:22;;;;;;;39.78;27.35;;;12.30;94.60;;;;;;4589962;19;20339;-30
2023/03/19 00:02:14;;;;;;;38.30;25.00;;;12.20;94.60;;;;;;4590080;19;20011;-29
2023/03/19 00:03:46;;;;;;;43.78;26.00;;;12.20;94.60;;;;;;4588778;19;20498;-31
2023/03/19 00:05:18;;;;;;;38.17;26.47;;;12.20;94.70;;;;;;4588512;19;20032;-29
2023/03/19 00:06:49;;;;;;;42.65;28.45;;;12.20;94.80;;;;;;4590083;19;20441;-30
2023/03/19 00:08:21;;;;;;;42.33;26.97;;;12.20;94.80;;;;;;4589652;19;20010;-31
2023/03/19 00:09:52;;;;;;;39.90;25.45;;;12.20;94.80;;;;;;4589522;19;20803;-29
2023/03/19 00:11:24;;;;;;;41.13;26.25;;;12.20;94.80;;;;;;4587714;19;20023;-31
2023/03/19 00:12:56;;;;;;;34.00;23.73;;;12.20;95.00;;;;;;4589531;19;20018;-31
2023/03/19 00:14:28;;;;;;;35.60;24.05;;;12.20;95.00;;;;;;4588940;19;20441;-29
2023/03/19 00:15:59;;;;;;;36.17;24.63;;;12.20;94.80;;;;;;4589500;19;20425;-28
2023/03/19 00:17:31;;;;;;;38.37;25.70;;;12.20;94.80;;;;;;4589411;19;20422;-31
2023/03/19 00:19:04;;;;;;;39.23;25.33;;;12.20;94.70;;;;;;4589591;19;20444;-30
2023/03/19 00:20:38;;;;;;;35.67;25.33;;;12.20;94.90;;;;;;4589380;19;20463;-29
2023/03/19 00:22:11;;;;;;;37.63;26.67;;;12.10;94.80;;;;;;4589493;19;20493;-29
2023/03/19 00:23:43;;;;;;;44.85;27.08;;;12.20;94.70;;;;;;4588399;19;20436;-32
2023/03/19 00:25:16;;;;;;;35.20;23.80;;;12.20;94.60;;;;;;4588221;19;20089;-29
2023/03/19 00:26:49;;;;;;;36.03;24.53;;;12.20;94.80;;;;;;4588973;19;20413;-31
2023/03/19 00:28:25;;;;;;;34.40;24.60;;;12.20;94.60;;;;;;4588381;19;21063;-28
2023/03/19 00:29:56;;;;;;;38.73;25.60;;;12.10;94.60;;;;;;4589086;19;20461;-30
2023/03/19 00:31:28;;;;;;;;;;;12.10;94.70;;;;;;4590270;19;20425;-30
2023/03/19 00:33:00;;;;;;;37.93;24.73;;;12.10;94.70;;;;;;4588329;19;20344;-31
2023/03/19 00:34:31;;;;;;;38.05;24.00;;;12.10;94.60;;;;;;4587570;19;21107;-29
2023/03/19 00:36:04;;;;;;;37.33;24.73;;;12.10;94.70;;;;;;4588188;19;20010;-32
2023/03/19 00:37:36;;;;;;;32.57;24.13;;;12.10;94.70;;;;;;4588765;19;20476;-28
2023/03/19 00:39:07;;;;;;;35.13;24.05;;;12.10;94.80;;;;;;4589321;19;20524;-32
2023/03/19 00:40:40;;;;;;;37.00;24.93;;;12.10;94.80;;;;;;4588924;19;20102;-32
2023/03/19 00:42:11;;;;;;;38.17;24.70;;;12.10;94.70;;;;;;4589373;19;20425;-30
2023/03/19 00:43:43;;;;;;;34.38;23.98;;;12.10;94.50;;;;;;4589043;19;20018;-31
2023/03/19 00:45:15;;;;;;;38.33;24.42;;;12.10;94.60;;;;;;4587782;19;20010;-30
2023/03/19 00:46:46;;;;;;;31.80;23.17;;;12.10;94.60;;;;;;4587741;19;20030;-29
2023/03/19 00:48:20;;;;;;;36.30;25.17;;;12.10;94.70;;;;;;4588928;19;20437;-30
2023/03/19 00:49:52;;;;;;;36.07;23.23;;;12.10;94.50;;;;;;4588478;19;20425;-30
2023/03/19 00:51:24;;;;;;;37.83;25.60;;;12.10;94.60;;;;;;4588918;19;20480;-31
2023/03/19 00:52:57;;;;;;;37.90;24.37;;;12.10;94.50;;;;;;4588046;19;20031;-29
2023/03/19 00:54:31;;;;;;;36.37;24.70;;;12.00;94.60;;;;;;4587811;19;21145;-28
2023/03/19 00:56:02;;;;;;;35.57;24.37;;;12.10;94.60;;;;;;4588892;19;20461;-31
2023/03/19 00:57:34;;;;;;;38.28;23.77;;;12.10;94.90;;;;;;4588971;19;20426;-31
2023/03/19 00:59:07;;;;;;;35.27;24.40;;;12.10;94.60;;;;;;4588776;19;20018;-30
2023/03/19 01:00:40;;;;;;;36.50;23.73;;;12.10;94.60;;;;;;4588846;19;20516;-31
2023/03/19 01:02:12;;;;;;;37.67;23.83;;;12.10;94.60;;;;;;4592418;19;20485;-30
2023/03/19 01:03:44;;;;;;;35.27;24.67;;;12.00;94.50;;;;;;4592229;19;20423;-30
2023/03/19 01:05:16;;;;;;;38.40;24.33;;;12.00;94.50;;;;;;4591458;19;20513;-29
2023/03/19 01:06:48;;;;;;;36.28;23.85;;;12.00;94.60;;;;;;4593471;19;20996;-30
2023/03/19 01:08:20;;;;;;;38.37;25.20;;;12.00;94.70;;;;;;4593523;19;20006;-30
2023/03/19 01:09:52;;;;;;;36.70;23.65;;;12.00;94.80;;;;;;4593228;19;20812;-30
2023/03/19 01:11:24;;;;;;;39.10;24.30;;;12.00;94.70;;;;;;4592010;19;20026;-29
2023/03/19 01:12:57;;;;;;;35.27;24.43;;;12.00;94.70;;;;;;4592346;19;20457;-29
2023/03/19 01:14:30;;;;;;;40.17;24.50;;;12.00;94.70;;;;;;4591895;19;20442;-29
2023/03/19 01:16:03;;;;;;;36.50;24.20;;;12.00;94.60;;;;;;4593186;19;20445;-30
2023/03/19 01:17:34;;;;;;;36.75;23.70;;;12.00;94.70;;;;;;4592444;19;20452;-31
2023/03/19 01:19:06;;;;;;;40.10;24.60;;;12.00;94.70;;;;;;4592859;19;20017;-29
2023/03/19 01:20:39;;;;;;;35.30;24.33;;;12.00;94.90;;;;;;4593475;19;20043;-31
2023/03/19 01:22:11;;;;;;;35.43;24.53;;;12.00;94.80;;;;;;4592204;19;20451;-30
2023/03/19 01:23:43;;;;;;;38.37;25.13;;;12.00;94.80;;;;;;4593000;19;20433;-31
2023/03/19 01:25:15;;;;;;;;;;;12.00;94.90;;;;;;4593946;19;20465;-34
2023/03/19 01:26:48;;;;;;;37.27;24.23;;;12.00;95.00;;;;;;4593135;19;19918;-29
2023/03/19 01:28:21;;;;;;;34.97;22.45;;;12.00;94.90;;;;;;4593160;19;21036;-29
2023/03/19 01:29:53;;;;;;;34.50;22.67;;;12.00;94.80;;;;;;4592948;19;20014;-30
2023/03/19 01:31:26;;;;;;;36.80;24.47;;;12.00;94.50;;;;;;4592805;19;20437;-29
2023/03/19 01:32:57;;;;;;;37.60;22.58;;;12.00;94.70;;;;;;4593007;19;20433;-31
2023/03/19 01:34:30;;;;;;;33.90;23.87;;;12.00;94.80;;;;;;4592140;19;20035;-30
2023/03/19 01:36:04;;;;;;;36.27;24.17;;;12.00;94.70;;;;;;4592272;19;20455;-32
2023/03/19 01:37:36;;;;;;;38.17;25.23;;;12.00;94.80;;;;;;4592789;19;20429;-29
2023/03/19 01:39:10;;;;;;;33.23;23.57;;;12.00;94.80;;;;;;4592742;19;21156;-30
2023/03/19 01:40:47;;;;;;;35.00;22.97;;;12.00;94.70;;;;;;4592700;19;20757;-30
2023/03/19 01:42:19;;;;;;;37.50;23.67;;;11.90;94.90;;;;;;4592700;19;20512;-30
2023/03/19 01:43:50;;;;;;;33.70;24.50;;;11.90;94.80;;;;;;4592523;19;21067;-29
2023/03/19 01:45:34;;;;;;;37.40;24.20;;;12.00;94.80;;;;;;4591853;19;20018;-30
2023/03/19 01:47:16;;;;;;;34.97;24.07;;;11.90;95.00;;;;;;4590231;19;20815;-30
2023/03/19 01:49:09;;;;;;;34.63;23.37;;;11.90;94.90;;;;;;4591690;19;20425;-33
2023/03/19 01:50:42;;;;;;;37.50;24.05;;;11.90;95.10;;;;;;4591528;19;21096;-30
2023/03/19 01:52:14;;;;;;;35.80;23.40;;;11.90;95.00;;;;;;4591305;19;20380;-30
2023/03/19 01:53:49;;;;;;;33.53;23.87;;;11.90;94.90;;;;;;4590990;19;20461;-29
2023/03/19 01:55:21;;;;;;;37.60;23.20;;;11.90;94.80;;;;;;4591593;19;20432;-31
2023/03/19 01:56:57;;;;;;;37.88;24.73;;;11.90;94.80;;;;;;4591236;19;20433;-30
2023/03/19 01:58:32;;;;;;;38.50;25.03;;;11.90;94.80;;;;;;4591388;19;20334;-30
2023/03/19 02:00:06;;;;;;;35.17;22.33;;;11.90;94.80;;;;;;4592191;19;20500;-31
2023/03/19 02:01:44;;;;;;;34.83;24.10;;;11.90;94.90;;;;;;4591500;19;20468;-28
2023/03/19 02:03:17;;;;;;;34.60;23.30;;;11.90;94.80;;;;;;4591132;19;20393;-31
2023/03/19 02:04:52;;;;;;;36.60;22.67;;;11.90;94.70;;;;;;4590270;19;20571;-31
2023/03/19 02:06:25;;;;;;;38.23;24.23;;;11.90;94.90;;;;;;4591873;19;20429;-32
2023/03/19 02:08:00;;;;;;;37.70;24.47;;;11.90;94.90;;;;;;4592300;19;21001;-30
2023/03/19 02:09:33;;;;;;;36.70;24.63;;;11.90;94.90;;;;;;4591084;19;20413;-30
2023/03/19 02:11:05;;;;;;;33.45;23.13;;;11.90;94.80;;;;;;4590144;19;20441;-29
2023/03/19 02:12:37;;;;;;;42.47;26.07;;;11.90;94.80;;;;;;4590811;19;20085;-29
2023/03/19 02:14:08;;;;;;;36.22;23.55;;;11.90;94.80;;;;;;4589063;19;20453;-31
2023/03/19 02:15:40;;;;;;;;;;;11.80;94.80;;;;;;4592829;19;20032;-29
2023/03/19 02:17:11;;;;;;;36.65;24.77;;;11.90;94.80;;;;;;4592189;19;20317;-29
2023/03/19 02:18:43;;;;;;;38.55;24.35;;;11.80;94.60;;;;;;4592425;19;20006;-31
2023/03/19 02:20:23;;;;;;;35.22;23.90;;;11.90;94.70;;;;;;4592004;19;20007;-28
2023/03/19 02:21:55;;;;;;;37.87;23.63;;;11.80;94.60;;;;;;4591972;19;20034;-31
2023/03/19 02:23:49;;;;;;;35.10;23.83;;;11.90;94.90;;;;;;4590555;19;20441;-32
2023/03/19 02:25:45;;;;;;;37.17;25.03;;;11.80;95.20;;;;;;4590788;19;20445;-30
2023/03/19 02:27:18;;;;;;;39.33;24.80;;;11.90;95.00;;;;;;4589709;19;21118;-29
2023/03/19 02:28:50;;;;;;;;;;;11.90;94.80;;;;;;4590345;19;20455;-30
2023/03/19 02:30:27;;;;;;;40.33;25.67;;;11.90;94.90;;;;;;4589773;19;19954;-29
2023/03/19 02:32:02;;;;;;;39.57;25.33;;;11.80;94.80;;;;;;4589591;19;20078;-30
2023/03/19 02:33:33;;;;;;;35.27;23.97;;;11.90;94.90;;;;;;4589597;19;20425;-29
2023/03/19 02:35:05;;;;;;;;;;;11.90;94.90;;;;;;4588838;19;20785;-29
2023/03/19 02:36:41;;;;;;;38.40;24.57;;;11.90;95.00;;;;;;4589922;19;19919;-30
2023/03/19 02:38:12;;;;;;;40.83;26.00;;;11.80;94.80;;;;;;4589158;19;20542;-33
2023/03/19 02:39:55;;;;;;;38.40;24.77;;;11.90;94.90;;;;;;4589232;19;20483;-30
2023/03/19 02:41:26;;;;;;;37.20;25.48;;;11.90;94.90;;;;;;4589245;19;20463;-30
2023/03/19 02:42:58;;;;;;;;;;;11.80;94.70;;;;;;4590572;19;20027;-29
2023/03/19 02:44:29;;;;;;;40.93;25.13;;;11.90;94.90;;;;;;4589342;19;19941;-31
2023/03/19 02:46:01;;;;;;;37.17;24.10;;;11.90;94.90;;;;;;4589235;19;20453;-30
2023/03/19 02:47:32;;;;;;;34.50;23.77;;;11.80;94.90;;;;;;4589276;19;20055;-29
2023/03/19 02:49:04;;;;;;;36.58;24.48;;;11.80;94.80;;;;;;4589166;19;20430;-30
2023/03/19 02:50:38;;;;;;;40.50;25.33;;;11.80;94.90;;;;;;4589432;19;20013;-30
2023/03/19 02:52:11;;;;;;;38.67;24.73;;;11.80;94.80;;;;;;4589011;19;20801;-31
2023/03/19 02:53:45;;;;;;;38.05;25.23;;;11.80;94.90;;;;;;4589477;19;20492;-30
2023/03/19 02:55:18;;;;;;;38.90;24.97;;;11.80;94.70;;;;;;4589052;19;20045;-32
2023/03/19 02:56:51;;;;;;;36.67;25.47;;;11.80;94.60;;;;;;4589110;19;20484;-29
2023/03/19 02:58:23;;;;;;;38.83;25.37;;;11.80;94.70;;;;;;4589061;19;20472;-32
2023/03/19 02:59:55;;;;;;;35.80;24.77;;;11.80;94.70;;;;;;4589142;19;20459;-29
2023/03/19 03:01:28;;;;;;;37.73;25.53;;;11.80;94.80;;;;;;4588446;19;20866;-30
2023/03/19 03:03:00;;;;;;;34.17;24.90;;;11.80;94.80;;;;;;4588741;19;20805;-30
2023/03/19 03:04:33;;;;;;;35.43;24.30;;;11.80;94.80;;;;;;4589028;19;20491;-30
2023/03/19 03:06:06;;;;;;;37.43;25.90;;;11.80;94.80;;;;;;4589818;19;20564;-30
2023/03/19 03:07:39;;;;;;;37.42;24.95;;;11.80;94.80;;;;;;4590602;19;20429;-30
2023/03/19 03:09:15;;;;;;;39.50;25.13;;;11.80;94.80;;;;;;4590950;19;20011;-31
2023/03/19 03:10:48;;;;;;;36.87;25.60;;;11.80;94.80;;;;;;4590003;19;20437;-29
2023/03/19 03:12:19;;;;;;;37.80;25.73;;;11.80;94.80;;;;;;4591469;19;20413;-29
2023/03/19 03:13:51;;;;;;;;;;;11.80;94.80;;;;;;4589193;19;20022;-31
2023/03/19 03:15:24;;;;;;;42.70;27.30;;;11.80;94.90;;;;;;4590120;19;19914;-29
2023/03/19 03:16:57;;;;;;;40.20;26.67;;;11.80;94.90;;;;;;4591001;19;20433;-29
2023/03/19 03:18:30;;;;;;;40.30;26.47;;;11.80;94.80;;;;;;4590900;19;20421;-31
2023/03/19 03:20:01;;;;;;;38.63;25.50;;;11.80;94.80;;;;;;4589489;19;20520;-30
2023/03/19 03:21:33;;;;;;;;;;;11.70;95.00;;;;;;4591280;19;20015;-31
2023/03/19 03:23:04;;;;;;;39.00;24.93;;;11.80;94.90;;;;;;4545788;19;19914;-30
2023/03/19 03:24:35;;;;;;;38.83;26.58;;;11.70;94.90;;;;;;4587411;19;20478;-32
2023/03/19 03:26:07;;;;;;;;;;;11.70;94.80;;;;;;4590852;19;20031;-29
2023/03/19 03:27:39;;;;;;;38.77;26.03;;;11.70;95.40;;;;;;4590789;19;20331;-29
2023/03/19 03:29:10;;;;;;;;;;;11.70;94.90;;;;;;4591500;19;20421;-31
2023/03/19 03:30:42;;;;;;;39.10;25.52;;;11.70;95.00;;;;;;4588208;19;19919;-29
2023/03/19 03:32:13;;;;;;;39.20;26.30;;;11.60;95.10;;;;;;4589967;19;20021;-30
2023/03/19 03:33:44;;;;;;;39.90;27.60;;;11.70;95.20;;;;;;4589483;19;20011;-30
2023/03/19 03:35:21;;;;;;;;;;;11.60;95.30;;;;;;4590931;19;20374;-30
2023/03/19 03:36:52;;;;;;;37.33;26.90;;;11.70;95.40;;;;;;4590275;19;19925;-30
2023/03/19 03:38:25;;;;;;;40.33;27.00;;;11.70;95.50;;;;;;4590273;19;20429;-34
2023/03/19 03:39:57;;;;;;;40.03;27.63;;;11.60;95.50;;;;;;4590471;19;20466;-30
2023/03/19 03:41:32;;;;;;;39.37;28.63;;;11.60;95.50;;;;;;4590268;19;20510;-30
2023/03/19 03:43:04;;;;;;;40.10;27.17;;;11.60;95.60;;;;;;4590095;19;20480;-30
2023/03/19 03:44:37;;;;;;;36.03;25.20;;;11.70;95.60;;;;;;4590255;19;20432;-30
2023/03/19 03:46:10;;;;;;;35.77;25.37;;;11.70;95.50;;;;;;4590364;19;20436;-30
2023/03/19 03:47:42;;;;;;;41.80;26.83;;;11.70;95.60;;;;;;4589774;19;20425;-31
2023/03/19 03:49:14;;;;;;;38.63;27.88;;;11.60;95.60;;;;;;4588920;19;20517;-29
2023/03/19 03:50:46;;;;;;;37.83;26.13;;;11.70;95.70;;;;;;4589653;19;20021;-31
2023/03/19 03:52:17;;;;;;;39.42;27.30;;;11.70;95.80;;;;;;4590023;19;20455;-30
2023/03/19 03:53:49;;;;;;;35.92;26.77;;;11.70;95.70;;;;;;4590020;19;20342;-31
2023/03/19 03:55:20;;;;;;;37.15;26.92;;;11.70;95.50;;;;;;4589098;19;20012;-31
2023/03/19 03:56:51;;;;;;;38.30;25.30;;;11.70;95.40;;;;;;4589654;19;20087;-30
2023/03/19 03:58:24;;;;;;;35.10;25.87;;;11.60;95.40;;;;;;4588889;19;20014;-30
2023/03/19 03:59:57;;;;;;;36.60;26.53;;;11.70;95.50;;;;;;4589715;19;20830;-32
2023/03/19 04:01:28;;;;;;;38.30;27.35;;;11.70;95.40;;;;;;4588906;19;20437;-32
2023/03/19 04:02:59;;;;;;;37.63;27.02;;;11.60;95.40;;;;;;4589836;19;20018;-33
2023/03/19 04:04:34;;;;;;;38.27;27.00;;;11.60;95.20;;;;;;4588473;19;20018;-32
2023/03/19 04:06:07;;;;;;;40.23;28.37;;;11.60;95.30;;;;;;4589809;19;20436;-30
2023/03/19 04:07:40;;;;;;;40.07;29.07;;;11.60;95.40;;;;;;4588666;19;20422;-30
2023/03/19 04:09:11;;;;;;;39.78;29.75;;;11.70;95.50;;;;;;4589489;19;20462;-29
2023/03/19 04:10:43;;;;;;;42.47;28.67;;;11.70;95.40;;;;;;4589472;19;20011;-29
2023/03/19 04:12:15;;;;;;;37.93;27.60;;;11.60;95.40;;;;;;4589730;19;20011;-29
2023/03/19 04:13:46;;;;;;;38.55;28.00;;;11.70;95.50;;;;;;4589818;19;20425;-30
2023/03/19 04:15:17;;;;;;;41.83;29.95;;;11.70;95.50;;;;;;4588693;19;20010;-30
2023/03/19 04:16:50;;;;;;;47.90;30.52;;;11.70;95.50;;;;;;4589633;19;20361;-29
2023/03/19 04:18:21;;;;;;;44.00;31.25;;;11.70;95.40;;;;;;4588448;19;20018;-31
2023/03/19 04:19:52;;;;;;;41.72;27.25;;;11.70;95.40;;;;;;4589110;19;20015;-31
2023/03/19 04:21:25;;;;;;;41.83;29.23;;;11.60;95.40;;;;;;4589383;19;20048;-32
2023/03/19 04:22:58;;;;;;;49.43;33.50;;;11.70;95.50;;;;;;4588345;19;20448;-33
2023/03/19 04:24:29;;;;;;;42.13;30.90;;;11.70;95.40;;;;;;4589023;19;21079;-32
2023/03/19 04:26:02;;;;;;;42.40;29.47;;;11.70;95.30;;;;;;4589284;19;20029;-31
2023/03/19 04:27:33;;;;;;;43.77;29.30;;;11.70;95.20;;;;;;4589661;19;20436;-31
2023/03/19 04:29:05;;;;;;;44.22;30.73;;;11.60;95.20;;;;;;4588208;19;20518;-30
2023/03/19 04:30:36;;;;;;;48.10;32.88;;;11.60;95.20;;;;;;4588968;19;20010;-29
2023/03/19 04:32:09;;;;;;;48.63;34.17;;;11.60;95.10;;;;;;4589555;19;20037;-30
2023/03/19 04:33:42;;;;;;;44.30;31.93;;;11.60;95.10;;;;;;4589052;19;21079;-31
2023/03/19 04:35:13;;;;;;;;;;;11.60;95.10;;;;;;4588981;19;20777;-30
2023/03/19 04:36:45;;;;;;;51.53;32.25;;;11.60;95.20;;;;;;4587990;19;20008;-32
2023/03/19 04:38:17;;;;;;;46.53;32.23;;;11.60;95.00;;;;;;4588237;19;20070;-31
2023/03/19 04:39:50;;;;;;;;;;;11.70;95.00;;;;;;4590047;19;20487;-31
2023/03/19 04:41:21;;;;;;;47.38;32.30;;;11.60;95.00;;;;;;4589143;19;20357;-30
2023/03/19 04:42:53;;;;;;;46.40;33.58;;;11.60;94.90;;;;;;4589031;19;20029;-29
2023/03/19 04:44:25;;;;;;;49.97;32.43;;;11.60;95.00;;;;;;4588120;19;20014;-30
2023/03/19 04:45:58;;;;;;;46.50;31.63;;;11.60;95.00;;;;;;4588707;19;20529;-29
2023/03/19 04:47:30;;;;;;;48.33;32.33;;;11.60;95.00;;;;;;4587882;19;20476;-29
2023/03/19 04:49:02;;;;;;;50.30;33.13;;;11.60;94.90;;;;;;4588853;19;20476;-30
2023/03/19 04:50:36;;;;;;;51.80;32.57;;;11.60;94.90;;;;;;4588846;19;20836;-29
2023/03/19 04:52:08;;;;;;;51.17;33.22;;;11.60;94.90;;;;;;4588117;19;20433;-29
2023/03/19 04:53:40;;;;;;;47.23;31.77;;;11.60;95.10;;;;;;4588687;19;20021;-29
2023/03/19 04:55:13;;;;;;;50.23;34.83;;;11.60;95.10;;;;;;4587607;19;20476;-29
2023/03/19 04:56:45;;;;;;;53.88;35.38;;;11.60;95.10;;;;;;4588002;19;20444;-30
2023/03/19 04:58:16;;;;;;;;;;;11.60;95.20;;;;;;4589098;19;20003;-30
2023/03/19 04:59:48;;;;;;;51.57;37.30;;;11.60;95.10;;;;;;4588662;19;20046;-30
2023/03/19 05:01:19;;;;;;;55.55;39.10;;;11.60;95.00;;;;;;4588686;19;20417;-31
2023/03/19 05:02:50;;;;;;;61.60;40.65;;;11.60;95.10;;;;;;4588837;19;20302;-32
2023/03/19 05:04:23;;;;;;;59.33;41.17;;;11.60;95.10;;;;;;4588300;19;20048;-30
2023/03/19 05:05:54;;;;;;;54.55;40.08;;;11.60;95.20;;;;;;4587829;19;20567;-29
2023/03/19 05:07:27;;;;;;;55.33;37.50;;;11.60;95.10;;;;;;4588256;19;20512;-30
2023/03/19 05:08:58;;;;;;;55.40;37.65;;;11.60;95.20;;;;;;4588628;19;20443;-29
2023/03/19 05:10:31;;;;;;;53.58;36.30;;;11.60;95.30;;;;;;4588031;19;20483;-30
2023/03/19 05:12:03;;;;;;;48.90;34.47;;;11.60;95.20;;;;;;4588621;19;20535;-30
2023/03/19 05:13:35;;;;;;;53.87;36.33;;;11.60;95.30;;;;;;4588749;19;20425;-30
2023/03/19 05:15:07;;;;;;;53.20;36.08;;;11.70;95.40;;;;;;4587751;19;20472;-30
2023/03/19 05:16:38;;;;;;;54.67;37.27;;;11.60;95.50;;;;;;4588717;19;20011;-29
2023/03/19 05:18:09;;;;;;;49.22;34.53;;;11.60;95.40;;;;;;4590486;19;20441;-32
2023/03/19 05:19:41;;;;;;;49.10;33.97;;;11.70;95.40;;;;;;4587947;19;20018;-30
2023/03/19 05:21:14;;;;;;;46.90;33.23;;;11.70;95.60;;;;;;4588940;19;20015;-32
2023/03/19 05:22:45;;;;;;;46.57;34.67;;;11.70;95.50;;;;;;4590758;19;20473;-30
2023/03/19 05:24:17;;;;;;;53.33;35.97;;;11.80;95.40;;;;;;4588448;19;20473;-31
2023/03/19 05:25:49;;;;;;;46.75;31.33;;;11.80;95.40;;;;;;4588708;19;20024;-28
2023/03/19 05:27:21;;;;;;;47.72;31.88;;;11.80;95.40;;;;;;4587681;19;20011;-30
2023/03/19 05:28:53;;;;;;;51.03;33.83;;;11.70;95.40;;;;;;4587995;19;20371;-33
2023/03/19 05:30:26;;;;;;;49.90;34.73;;;11.70;95.50;;;;;;4588505;19;20466;-30
2023/03/19 05:32:01;;;;;;;50.37;33.00;;;11.60;95.90;;;;;;4587623;19;20486;-32
2023/03/19 05:33:33;;;;;;;52.80;32.67;;;11.60;95.60;;;;;;4587506;19;21139;-32
2023/03/19 05:35:05;;;;;;;45.75;31.67;;;11.60;95.70;;;;;;4587217;19;20449;-32
2023/03/19 05:36:38;;;;;;;46.33;31.87;;;11.70;95.70;;;;;;4588149;19;20010;-33
2023/03/19 05:38:10;;;;;;;;;;;11.70;95.70;;;;;;4589185;19;20437;-33
2023/03/19 05:39:42;;;;;;;44.33;29.48;;;11.70;95.70;;;;;;4588121;19;19999;-30
2023/03/19 05:41:14;;;;;;;48.43;32.60;;;11.80;95.80;;;;;;4588288;19;20020;-30
2023/03/19 05:42:45;;;;;;;45.45;31.48;;;11.80;95.80;;;;;;4588909;19;20453;-30
2023/03/19 05:44:17;;;;;;;46.75;32.45;;;11.80;95.90;;;;;;4590149;19;20018;-32
2023/03/19 05:45:51;;;;;;;45.92;31.92;;;11.80;95.80;;;;;;4588514;19;20088;-30
2023/03/19 05:47:22;;;;;;;48.83;33.67;;;11.80;95.70;;;;;;4588393;19;20350;-32
2023/03/19 05:48:54;;;;;;;51.95;34.83;;;11.90;95.70;;;;;;4590556;19;20556;-33
2023/03/19 05:50:26;;;;;;;48.53;33.63;;;11.90;95.60;;;;;;4592271;19;20022;-30
2023/03/19 05:51:57;;;;;;;50.38;33.72;;;11.80;95.70;;;;;;4593040;19;20556;-34
2023/03/19 05:53:29;;;;;;;47.95;35.08;;;11.90;95.70;;;;;;4592665;19;20011;-30
2023/03/19 05:55:00;;;;;;;50.22;34.25;;;11.90;95.60;;;;;;4591920;19;20505;-30
2023/03/19 05:56:31;;;;;;;49.58;34.60;;;11.90;95.70;;;;;;4592024;19;20022;-30
2023/03/19 05:58:03;;;;;;;;;;;11.90;95.60;;;;;;4592685;19;20077;-29
2023/03/19 05:59:34;;;;;;;49.83;32.37;;;11.90;95.70;;;;;;4591442;19;19918;-30
2023/03/19 06:01:06;;;;;;;;;;;11.90;95.50;;;;;;4593165;19;20839;-32
2023/03/19 06:02:37;;;;;;;49.95;31.80;;;12.00;95.70;;;;;;4593283;19;19919;-29
2023/03/19 06:04:09;;;;;;;46.38;31.58;;;11.90;95.50;;;;;;4592125;19;20049;-32
2023/03/19 06:05:42;;;;;;;45.75;31.10;;;11.90;95.40;;;;;;4593158;19;20014;-30
2023/03/19 06:07:14;;;;;;;48.90;32.83;;;12.00;95.70;;;;;;4592936;19;20023;-30
2023/03/19 06:08:47;;;;;;;44.67;32.13;;;12.00;96.00;;;;;;4592119;19;20512;-33
2023/03/19 06:10:18;;;;;;;42.70;30.00;;;12.00;95.80;;;;;;4592022;19;20377;-30
2023/03/19 06:11:50;;;;;;;47.07;31.03;;;12.00;95.80;;;;;;4592576;19;20432;-30
2023/03/19 06:13:21;;;;;;;45.17;30.35;;;12.00;95.70;;;;;;4593081;19;20472;-32
2023/03/19 06:14:52;;;;;;;49.15;31.40;;;12.00;95.50;;;;;;4591657;19;20040;-33
2023/03/19 06:16:24;;;;;;;44.65;30.85;;;12.00;95.30;;;;;;4592369;19;20032;-32
2023/03/19 06:17:55;;;;;;;;;;;12.00;95.30;;;;;;4592832;19;20035;-31
2023/03/19 06:19:26;;;;;;;47.37;30.70;;;12.10;95.80;;;;;;4590453;19;19915;-31
2023/03/19 06:20:58;;;;;;;46.55;32.22;;;12.10;95.70;;;;;;4592350;19;20846;-31
2023/03/19 06:22:29;;;;;;;44.40;31.23;;;12.10;95.50;;;;;;4592425;19;20350;-30
2023/03/19 06:24:00;;;;;;;42.78;28.00;;;12.10;95.60;;;;;;4592050;19;20030;-31
2023/03/19 06:25:32;;;;;;;42.40;29.80;;;12.10;95.80;;;;;;4592489;19;20038;-30
2023/03/19 06:27:03;;;;;;;44.65;30.92;;;12.10;95.80;;;;;;4592058;19;20025;-31
2023/03/19 06:28:36;;;;;;;46.57;30.57;;;12.10;95.70;;;;;;4591090;19;20031;-29
2023/03/19 06:30:08;;;;;;;44.67;30.58;;;12.10;95.80;;;;;;4591961;19;20862;-30
2023/03/19 06:31:40;;;;;;;;;;;12.10;95.70;;;;;;4592878;19;20373;-29
2023/03/19 06:33:11;;;;;;;44.33;30.70;;;12.10;95.90;;;;;;4592058;19;20440;-29
2023/03/19 06:34:43;;;;;;;45.57;29.63;;;12.20;96.00;;;;;;4591259;19;20018;-29
2023/03/19 06:36:15;;;;;;;44.70;30.55;;;12.10;95.60;;;;;;4592318;19;20465;-29
2023/03/19 06:37:47;;;;;;;41.10;28.13;;;12.10;95.70;;;;;;4591738;19;20011;-28
2023/03/19 06:39:20;;;;;;;48.27;30.47;;;12.20;95.80;;;;;;4591620;19;20477;-27
2023/03/19 06:40:52;;;;;;;41.27;28.40;;;12.20;95.90;;;;;;4591974;19;20437;-30
2023/03/19 06:42:23;;;;;;;41.97;27.77;;;12.20;95.90;;;;;;4591453;19;20460;-30
2023/03/19 06:43:55;;;;;;;43.55;29.13;;;12.20;95.80;;;;;;4592463;19;20014;-28
2023/03/19 06:45:28;;;;;;;40.53;29.73;;;12.30;95.50;;;;;;4590722;19;20046;-35
2023/03/19 06:46:59;;;;;;;40.53;28.80;;;12.30;95.70;;;;;;4590962;19;21025;-29
2023/03/19 06:48:31;;;;;;;44.08;27.48;;;12.30;95.70;;;;;;4591668;19;20019;-30
2023/03/19 06:50:03;;;;;;;38.00;27.15;;;12.40;95.80;;;;;;4590988;19;20070;-30
2023/03/19 06:51:34;;;;;;;35.13;25.50;;;12.40;95.50;;;;;;4591354;19;20345;-29
2023/03/19 06:53:06;;;;;;;39.55;27.67;;;12.40;95.00;;;;;;4592187;19;20485;-29
2023/03/19 06:54:37;;;;;;;;;;;12.50;95.10;;;;;;4591727;19;20010;-30
2023/03/19 06:56:09;;;;;;;39.07;26.53;;;12.50;95.00;;;;;;4591013;19;19922;-31
2023/03/19 06:57:41;;;;;;;43.70;29.15;;;12.50;94.60;;;;;;4589813;19;20428;-30
2023/03/19 06:59:12;;;;;;;39.85;27.83;;;12.50;94.50;;;;;;4590111;19;20033;-31
2023/03/19 07:00:43;;;;;;;40.83;29.58;;;12.60;94.70;;;;;;4590739;19;20015;-34
2023/03/19 07:02:17;;;;;;;40.60;28.20;;;12.60;94.80;;;;;;4592007;19;20011;-31
2023/03/19 07:03:48;;;;;;;42.38;30.42;;;12.60;94.60;;;;;;4591866;19;20445;-31
2023/03/19 07:05:20;;;;;;;41.58;33.97;;;12.60;95.00;;;;;;4590428;19;20829;-32
2023/03/19 07:06:51;;;;;;;48.97;41.22;;;12.70;94.90;;;;;;4585682;19;20044;-31
2023/03/19 07:08:22;;;;;;;52.60;47.00;;;12.70;94.90;;;;;;4590354;19;20492;-29
2023/03/19 07:09:54;;;;;;;46.47;38.42;;;12.70;94.70;;;;;;4591878;19;20022;-29
2023/03/19 07:11:25;;;;;;;;;;;12.70;94.70;;;;;;4590598;19;20021;-33
2023/03/19 07:12:57;;;;;;;38.37;26.80;;;12.70;94.70;;;;;;4590335;19;19967;-29
2023/03/19 07:14:28;;;;;;;42.13;27.02;;;12.70;94.50;;;;;;4589874;19;20509;-33
2023/03/19 07:15:59;;;;;;;;;;;12.70;94.60;;;;;;4589784;19;20018;-32
2023/03/19 07:17:31;;;;;;;38.07;25.20;;;12.70;94.70;;;;;;4590478;19;19914;-31
2023/03/19 07:19:02;;;;;;;38.22;25.58;;;12.70;94.50;;;;;;4589726;19;20487;-31
2023/03/19 07:20:34;;;;;;;35.67;24.83;;;12.70;94.30;;;;;;4589360;19;20010;-33
2023/03/19 07:22:06;;;;;;;43.17;24.70;;;12.70;94.40;;;;;;4591208;19;20457;-32
2023/03/19 07:23:39;;;;;;;37.55;25.33;;;12.70;94.80;;;;;;4589854;19;20457;-30
2023/03/19 07:25:11;;;;;;;37.10;25.87;;;12.70;94.50;;;;;;4591743;19;20043;-32
2023/03/19 07:26:43;;;;;;;44.50;24.33;;;12.80;94.50;;;;;;4588058;19;20449;-31
2023/03/19 07:28:15;;;;;;;38.60;26.45;;;12.80;94.90;;;;;;4589971;19;20460;-31
2023/03/19 07:29:47;;;;;;;36.63;26.10;;;12.80;94.80;;;;;;4589421;19;20039;-30
2023/03/19 07:31:18;;;;;;;41.35;26.75;;;12.80;95.00;;;;;;4589057;19;20471;-35
2023/03/19 07:32:50;;;;;;;;;;;12.80;95.00;;;;;;4591968;19;20034;-30
2023/03/19 07:34:22;;;;;;;39.15;25.35;;;12.80;95.00;;;;;;4590314;19;19919;-31
2023/03/19 07:35:54;;;;;;;37.83;25.03;;;12.70;95.20;;;;;;4591259;19;20040;-30
2023/03/19 07:37:25;;;;;;;40.20;25.20;;;12.80;95.30;;;;;;4588886;19;21092;-31
2023/03/19 07:38:58;;;;;;;38.07;25.07;;;12.70;95.10;;;;;;4590456;19;20026;-30
2023/03/19 07:40:29;;;;;;;38.85;25.35;;;12.70;95.00;;;;;;4590062;19;20500;-29
2023/03/19 07:42:00;;;;;;;41.08;27.77;;;12.70;95.00;;;;;;4589812;19;20066;-31
2023/03/19 07:43:31;;;;;;;34.95;24.50;;;12.70;95.20;;;;;;4589261;19;20018;-30
2023/03/19 07:45:04;;;;;;;40.43;24.33;;;12.70;95.30;;;;;;4589724;19;20525;-27
2023/03/19 07:46:36;;;;;;;40.17;25.37;;;12.70;95.00;;;;;;4587850;19;20491;-30
2023/03/19 07:48:08;;;;;;;43.63;27.43;;;12.70;95.20;;;;;;4589750;19;20505;-33
2023/03/19 07:49:39;;;;;;;40.28;26.75;;;12.70;95.20;;;;;;4590589;19;20456;-30
2023/03/19 07:51:11;;;;;;;38.60;26.37;;;12.80;94.90;;;;;;4591233;19;20010;-30
2023/03/19 07:52:47;;;;;;;37.50;25.55;;;12.80;94.70;;;;;;4590436;19;20461;-30